Time;durP1;ratioP1;P1;durP2;ratioP2;P2;SDS_P1;SDS_P2;PMS_P1;PMS_P2;Temp;Humidity;BMP_temperature;BMP_pressure;BME280_temperature;BME280_humidity;BME280_pressure;Samples;Min_cycle;Max_cycle;Signal;HPM_P1;HPM_P2
2021/05/08 03:00:32;;;;;;;5.27;1.80;;;;;;;12.99;78.60;100103.45;1777792;77;22292;-66
2021/05/08 03:03:03;;;;;;;4.72;1.87;;;;;;;13.01;80.61;100099.64;1792461;79;21388;-67
2021/05/08 03:05:32;;;;;;;4.23;1.60;;;;;;;13.01;82.33;100105.37;1763615;79;21202;-68
2021/05/08 03:08:03;;;;;;;3.97;2.10;;;;;;;13.01;82.80;100109.30;1786488;79;21754;-66
2021/05/08 03:10:31;;;;;;;3.63;1.73;;;;;;;12.99;87.67;100110.00;1790616;79;21387;-67
2021/05/08 03:13:01;;;;;;;3.80;1.73;;;;;;;12.96;91.69;100109.12;1765294;79;21369;-66
2021/05/08 03:15:30;;;;;;;3.73;1.87;;;;;;;12.96;91.69;100109.12;1798530;78;21730;-67
2021/05/08 03:17:58;;;;;;;5.87;1.83;;;;;;;12.94;97.03;100106.69;1803676;78;21466;-66
2021/05/08 03:20:27;;;;;;;3.77;1.87;;;;;;;12.89;99.80;100112.53;1767897;79;21368;-67
2021/05/08 03:22:56;;;;;;;6.57;1.93;;;;;;;12.82;100.00;100111.72;1736391;79;21986;-67
2021/05/08 03:25:25;;;;;;;4.63;2.03;;;;;;;12.79;100.00;100110.00;1761437;79;22712;-67
2021/05/08 03:27:53;;;;;;;4.77;2.03;;;;;;;12.73;100.00;100119.47;1763419;79;21368;-67
2021/05/08 03:30:23;;;;;;;5.30;2.80;;;;;;;12.64;100.00;100116.73;1762332;79;21601;-67
2021/05/08 03:32:53;;;;;;;5.17;3.30;;;;;;;12.58;100.00;100117.55;1767121;79;21355;-68
2021/05/08 03:35:22;;;;;;;6.17;2.70;;;;;;;12.47;100.00;100117.63;1764106;79;21480;-68
2021/05/08 03:37:51;;;;;;;5.47;2.37;;;;;;;12.34;100.00;100122.30;1765552;79;21444;-69
2021/05/08 03:40:20;;;;;;;5.63;2.47;;;;;;;12.23;100.00;100121.57;1764551;79;21519;-69
2021/05/08 03:42:48;;;;;;;7.90;3.27;;;;;;;12.09;100.00;100116.02;1772959;79;21408;-72
2021/05/08 03:45:17;;;;;;;7.30;3.47;;;;;;;11.96;100.00;100114.66;1759895;79;21461;-71
2021/05/08 03:47:45;;;;;;;8.23;3.00;;;;;;;11.83;100.00;100119.30;1768023;79;21386;-73
2021/05/08 03:50:14;;;;;;;5.57;3.17;;;;;;;11.71;100.00;100117.75;1765607;79;21342;-71
2021/05/08 03:52:43;;;;;;;7.03;3.40;;;;;;;11.60;100.00;100112.56;1766355;79;21341;-72
2021/05/08 03:55:12;;;;;;;7.33;3.17;;;;;;;11.53;100.00;100110.92;1770014;80;21308;-74
2021/05/08 03:57:40;;;;;;;8.83;3.63;;;;;;;11.45;100.00;100116.60;1769319;79;21825;-72
2021/05/08 04:00:10;;;;;;;7.80;3.60;;;;;;;11.39;100.00;100117.36;1768414;79;21382;-72
2021/05/08 04:02:43;;;;;;;11.37;3.47;;;;;;;11.33;100.00;100111.61;1768984;79;21737;-72
2021/05/08 04:05:12;;;;;;;9.07;3.70;;;;;;;11.27;100.00;100114.98;1779313;79;22374;-71
2021/05/08 04:07:41;;;;;;;9.33;4.00;;;;;;;11.23;100.00;100115.05;1778870;79;21758;-69
2021/05/08 04:10:10;;;;;;;7.67;3.73;;;;;;;11.18;100.00;100101.78;1837994;76;21535;-70
2021/05/08 04:12:39;;;;;;;8.73;3.67;;;;;;;11.15;100.00;100096.44;1826467;76;21214;-69
2021/05/08 04:15:09;;;;;;;8.10;4.03;;;;;;;11.12;100.00;100098.11;1736651;80;21327;-70
2021/05/08 04:17:37;;;;;;;9.03;4.23;;;;;;;11.13;100.00;100096.31;1756579;79;21317;-70
2021/05/08 04:20:07;;;;;;;8.07;4.30;;;;;;;11.14;100.00;100091.42;1789465;79;21430;-70
2021/05/08 04:22:35;;;;;;;8.80;4.40;;;;;;;11.15;100.00;100087.80;1796711;79;21139;-71
2021/05/08 04:25:04;;;;;;;12.67;4.80;;;;;;;11.16;100.00;100088.11;1794170;79;21310;-71
2021/05/08 04:27:33;;;;;;;11.53;4.57;;;;;;;11.15;100.00;100086.50;1796362;79;21346;-69
2021/05/08 04:30:01;;;;;;;8.37;4.50;;;;;;;11.13;100.00;100078.84;1792893;79;22657;-70
2021/05/08 04:32:29;;;;;;;10.47;5.17;;;;;;;11.11;100.00;100060.49;1788093;79;21091;-71
2021/05/08 04:34:58;;;;;;;14.87;6.27;;;;;;;11.07;100.00;100063.98;1796296;79;21400;-70
2021/05/08 04:37:26;;;;;;;12.37;6.20;;;;;;;11.05;100.00;100072.48;1797956;79;21365;-70
2021/05/08 04:39:56;;;;;;;13.80;6.17;;;;;;;11.06;100.00;100068.06;1791524;79;21748;-71
2021/05/08 04:42:24;;;;;;;12.53;6.03;;;;;;;11.08;100.00;100054.34;1762403;79;21376;-72
2021/05/08 04:44:53;;;;;;;15.03;7.17;;;;;;;11.07;100.00;100048.33;1791259;79;21854;-73
2021/05/08 04:47:21;;;;;;;11.30;6.20;;;;;;;11.06;100.00;100045.42;1762690;79;21355;-72
2021/05/08 04:49:54;;;;;;;13.53;7.20;;;;;;;11.05;100.00;100037.27;1758212;80;21418;-73
2021/05/08 04:52:21;;;;;;;14.63;5.50;;;;;;;11.04;100.00;100025.23;1757670;79;21175;-72
2021/05/08 04:54:49;;;;;;;9.53;5.37;;;;;;;11.04;100.00;100021.81;1766447;79;21602;-73
2021/05/08 04:57:18;;;;;;;9.27;5.50;;;;;;;11.04;100.00;100015.30;1759911;79;21330;-73
2021/05/08 04:59:48;;;;;;;12.77;5.63;;;;;;;11.06;100.00;100009.38;1766131;80;21277;-72
2021/05/08 05:02:17;;;;;;;12.33;5.70;;;;;;;11.08;100.00;100010.00;1783225;79;21369;-71
2021/05/08 05:04:45;;;;;;;10.83;5.70;;;;;;;11.13;100.00;100012.83;1773389;80;21243;-71
2021/05/08 05:07:14;;;;;;;11.57;6.60;;;;;;;11.18;100.00;100011.77;1768035;80;21362;-71
2021/05/08 05:09:44;;;;;;;15.60;6.47;;;;;;;11.26;100.00;100016.03;1770454;80;21885;-72
2021/05/08 05:12:14;;;;;;;13.40;5.67;;;;;;;11.32;100.00;100002.19;1769996;80;21225;-70
2021/05/08 05:14:43;;;;;;;18.27;5.97;;;;;;;11.37;100.00;99997.22;1778925;80;37500;-73
2021/05/08 05:17:11;;;;;;;9.30;4.50;;;;;;;11.43;100.00;99999.83;1778074;80;21868;-73
2021/05/08 05:19:39;;;;;;;8.43;5.60;;;;;;;11.52;100.00;99999.69;1776501;79;21395;-73
2021/05/08 05:22:07;;;;;;;9.70;5.30;;;;;;;11.56;100.00;99987.34;1776834;80;22558;-73
2021/05/08 05:24:35;;;;;;;7.37;4.20;;;;;;;11.59;100.00;99983.05;1774546;80;21446;-73
2021/05/08 05:27:05;;;;;;;12.03;4.60;;;;;;;11.61;100.00;99982.84;1775383;80;21887;-71
2021/05/08 05:29:33;;;;;;;8.17;4.53;;;;;;;11.66;100.00;99979.13;1774067;80;21909;-73
2021/05/08 05:32:02;;;;;;;10.03;5.50;;;;;;;11.73;100.00;99977.34;1784901;80;22152;-71
2021/05/08 05:34:30;;;;;;;7.80;4.93;;;;;;;11.81;100.00;99981.07;1771845;79;21427;-71
2021/05/08 05:36:59;;;;;;;7.30;4.87;;;;;;;11.90;100.00;99977.32;1778942;80;21897;-72
2021/05/08 05:39:28;;;;;;;10.30;5.70;;;;;;;12.04;100.00;99983.34;1777564;80;21303;-73
2021/05/08 05:41:56;;;;;;;8.27;4.53;;;;;;;12.20;100.00;99976.95;1772229;80;22194;-71
2021/05/08 05:44:25;;;;;;;10.30;5.20;;;;;;;12.33;100.00;99978.26;1773765;80;22373;-71
2021/05/08 05:46:53;;;;;;;8.77;4.60;;;;;;;12.45;100.00;99975.84;1775028;80;21427;-69
2021/05/08 05:49:22;;;;;;;9.03;4.50;;;;;;;12.60;100.00;99980.34;1764976;80;21346;-71
2021/05/08 05:51:50;;;;;;;11.67;4.50;;;;;;;12.60;100.00;99980.34;1774364;80;21498;-70
2021/05/08 05:54:20;;;;;;;11.50;4.50;;;;;;;12.72;100.00;99976.61;1774923;80;21273;-70
2021/05/08 05:56:49;;;;;;;9.67;5.00;;;;;;;12.85;100.00;99973.98;1766594;80;21962;-72
2021/05/08 05:59:17;;;;;;;7.67;4.37;;;;;;;13.02;100.00;99976.95;1772038;80;21876;-74
2021/05/08 06:01:46;;;;;;;9.70;4.40;;;;;;;13.15;100.00;99965.66;1777231;79;21494;-70
2021/05/08 06:04:14;;;;;;;8.07;3.73;;;;;;;13.35;100.00;99952.52;1761258;79;21769;-72
2021/05/08 06:06:43;;;;;;;7.90;5.20;;;;;;;13.35;100.00;99952.52;1764688;80;21811;-70
2021/05/08 06:09:11;;;;;;;9.27;5.90;;;;;;;13.47;100.00;99946.11;1761710;80;21809;-69
2021/05/08 06:11:41;;;;;;;13.37;5.60;;;;;;;13.61;100.00;99941.91;1754797;80;22262;-73
2021/05/08 06:14:10;;;;;;;7.53;3.83;;;;;;;13.79;100.00;99933.86;1762927;79;21913;-70
2021/05/08 06:16:40;;;;;;;7.70;4.57;;;;;;;13.97;100.00;99937.03;1765897;79;21821;-71
2021/05/08 06:19:08;;;;;;;8.40;4.30;;;;;;;14.17;100.00;99930.32;1756631;80;22093;-71
2021/05/08 06:21:38;;;;;;;9.10;4.37;;;;;;;14.51;100.00;99922.00;1761998;79;21920;-70
2021/05/08 06:24:08;;;;;;;8.40;4.93;;;;;;;14.51;100.00;99922.00;1766079;79;21454;-69
2021/05/08 06:26:36;;;;;;;9.07;4.77;;;;;;;14.78;100.00;99935.65;1760336;80;21201;-68
2021/05/08 06:29:04;;;;;;;10.33;5.70;;;;;;;15.04;100.00;99928.51;1760097;80;21213;-70
2021/05/08 06:31:33;;;;;;;7.47;4.73;;;;;;;15.32;100.00;99924.80;1761751;80;21183;-72
2021/05/08 06:34:02;;;;;;;6.90;4.70;;;;;;;15.60;100.00;99923.94;1771155;79;21201;-70
2021/05/08 06:36:30;;;;;;;8.03;4.07;;;;;;;15.81;100.00;99912.95;1765944;79;21562;-71
2021/05/08 06:38:59;;;;;;;7.40;4.70;;;;;;;15.99;100.00;99915.50;1762551;79;21200;-71
2021/05/08 06:41:27;;;;;;;7.07;4.43;;;;;;;16.02;100.00;99907.16;1768175;79;21113;-69
2021/05/08 06:43:55;;;;;;;8.07;4.40;;;;;;;15.94;100.00;99892.21;1769841;79;21476;-69
2021/05/08 06:46:24;;;;;;;7.67;4.80;;;;;;;15.90;100.00;99889.23;1766229;80;21344;-74
2021/05/08 06:48:53;;;;;;;6.50;4.43;;;;;;;15.89;100.00;99886.33;1760099;80;21481;-71
2021/05/08 06:51:21;;;;;;;8.20;4.73;;;;;;;15.87;100.00;99883.62;1765850;80;20947;-69
2021/05/08 06:53:50;;;;;;;9.23;4.33;;;;;;;15.85;100.00;99885.70;1763386;79;21213;-71
2021/05/08 06:56:18;;;;;;;10.13;5.30;;;;;;;15.93;100.00;99894.56;1761319;79;21153;-70
2021/05/08 06:58:47;;;;;;;11.17;5.43;;;;;;;16.04;100.00;99882.74;1769406;79;22306;-68
2021/05/08 07:01:16;;;;;;;12.13;5.43;;;;;;;16.18;100.00;99887.27;1723752;80;21585;-74
2021/05/08 07:03:45;;;;;;;10.10;5.27;;;;;;;16.33;100.00;99878.92;1746281;80;21088;-72
2021/05/08 07:06:13;;;;;;;10.03;5.53;;;;;;;16.47;100.00;99875.00;1801199;78;21160;-73
2021/05/08 07:08:42;;;;;;;14.87;6.33;;;;;;;16.62;100.00;99872.41;1812700;77;21191;-69
2021/05/08 07:11:11;;;;;;;13.33;6.23;;;;;;;16.70;100.00;99870.73;1805290;77;21423;-72
2021/05/08 07:13:39;;;;;;;13.20;6.63;;;;;;;16.83;100.00;99881.56;1807044;77;21168;-69
2021/05/08 07:16:07;;;;;;;15.20;7.63;;;;;;;16.99;100.00;99875.55;1802057;77;21120;-74
2021/05/08 07:18:36;;;;;;;15.20;7.20;;;;;;;17.07;100.00;99855.42;1799637;77;21115;-68
2021/05/08 07:21:05;;;;;;;14.10;7.17;;;;;;;17.02;100.00;99868.52;1803105;77;21555;-70
2021/05/08 07:23:33;;;;;;;15.70;8.40;;;;;;;16.89;100.00;99867.45;1789457;78;22111;-70
2021/05/08 07:26:02;;;;;;;15.67;8.07;;;;;;;16.79;100.00;99857.54;1765125;79;21928;-70
2021/05/08 07:28:31;;;;;;;13.23;7.00;;;;;;;16.77;100.00;99848.55;1784084;79;21147;-68
2021/05/08 07:31:00;;;;;;;15.67;8.93;;;;;;;16.86;100.00;99852.95;1785242;79;21155;-73
2021/05/08 07:33:28;;;;;;;16.33;8.70;;;;;;;16.95;100.00;99861.27;1797991;78;21168;-69
2021/05/08 07:35:57;;;;;;;16.17;9.67;;;;;;;17.00;100.00;99860.03;1773548;80;21189;-75
2021/05/08 07:38:25;;;;;;;21.87;8.80;;;;;;;17.09;100.00;99838.09;1778956;80;21205;-71
2021/05/08 07:40:54;;;;;;;15.03;9.17;;;;;;;17.18;100.00;99844.56;1779112;80;21171;-69
2021/05/08 07:43:22;;;;;;;17.87;8.83;;;;;;;17.36;100.00;99843.57;1780822;80;21098;-70
2021/05/08 07:45:51;;;;;;;22.43;12.03;;;;;;;17.64;100.00;99835.59;1766254;80;21254;-74
2021/05/08 07:48:20;;;;;;;27.23;8.80;;;;;;;18.03;100.00;99836.98;1732724;82;22377;-70
2021/05/08 07:50:48;;;;;;;17.30;9.10;;;;;;;18.50;100.00;99822.06;1767030;80;21193;-71
2021/05/08 07:53:16;;;;;;;15.50;8.23;;;;;;;19.11;100.00;99817.47;1777212;80;21046;-72
2021/05/08 07:55:46;;;;;;;16.37;8.63;;;;;;;19.71;100.00;99812.19;1770040;80;21312;-70
2021/05/08 07:58:16;;;;;;;11.90;8.28;;;;;;;20.29;100.00;99799.81;1774887;80;20957;-71
2021/05/08 08:00:45;;;;;;;11.90;7.90;;;;;;;20.62;100.00;99792.81;1774287;80;21190;-70
2021/05/08 08:03:13;;;;;;;12.93;7.67;;;;;;;20.85;100.00;99784.13;1763222;80;21229;-72
2021/05/08 08:05:43;;;;;;;16.40;8.63;;;;;;;21.02;100.00;99792.63;1780215;79;21150;-69
2021/05/08 08:08:12;;;;;;;17.87;8.10;;;;;;;21.05;100.00;99785.48;1767868;79;21009;-72
2021/05/08 08:10:40;;;;;;;11.73;6.80;;;;;;;21.00;100.00;99786.80;1768676;78;21101;-70
2021/05/08 08:13:08;;;;;;;15.83;9.00;;;;;;;20.84;100.00;99779.91;1759879;78;22506;-70
2021/05/08 08:15:38;;;;;;;15.03;8.70;;;;;;;20.76;100.00;99773.77;1774918;78;21005;-73
2021/05/08 08:18:09;;;;;;;15.43;6.80;;;;;;;20.74;100.00;99766.63;1768380;78;21224;-72
2021/05/08 08:20:37;;;;;;;12.43;6.22;;;;;;;20.86;100.00;99769.82;1762148;79;21041;-70
2021/05/08 08:23:05;;;;;;;9.37;4.50;;;;;;;21.12;100.00;99769.33;1769679;78;21210;-71
2021/05/08 08:25:34;;;;;;;7.20;3.17;;;;;;;21.43;100.00;99773.33;1775005;78;21214;-70
2021/05/08 08:28:04;;;;;;;6.17;2.87;;;;;;;21.61;93.17;99772.78;1773140;79;21238;-71
2021/05/08 08:30:34;;;;;;;7.13;3.13;;;;;;;21.71;86.35;99769.33;1765438;79;21409;-70
2021/05/08 08:33:02;;;;;;;9.50;3.30;;;;;;;21.79;80.74;99756.84;1800579;78;21182;-66
2021/05/08 08:35:31;;;;;;;7.70;4.00;;;;;;;21.82;78.24;99761.08;1798090;79;21127;-69
2021/05/08 08:38:02;;;;;;;8.70;3.90;;;;;;;21.74;77.69;99752.86;1758404;79;22291;-70
2021/05/08 08:40:30;;;;;;;7.80;4.67;;;;;;;21.64;85.38;99751.57;1758863;79;21212;-70
2021/05/08 08:42:58;;;;;;;9.80;4.80;;;;;;;21.68;87.64;99736.70;1760054;79;21228;-70
2021/05/08 08:45:27;;;;;;;10.10;4.90;;;;;;;21.77;90.81;99736.41;1771672;78;21180;-69
2021/05/08 08:47:57;;;;;;;11.50;5.60;;;;;;;21.84;87.95;99727.09;1765364;79;21137;-71
2021/05/08 08:50:28;;;;;;;9.80;5.23;;;;;;;21.81;89.45;99730.82;1763731;80;21154;-70
2021/05/08 08:52:58;;;;;;;8.07;4.50;;;;;;;21.81;91.85;99718.87;1750064;80;21226;-72
2021/05/08 08:55:27;;;;;;;7.40;4.30;;;;;;;21.91;86.97;99715.41;1762828;80;21554;-72
2021/05/08 08:57:56;;;;;;;7.17;3.30;;;;;;;22.04;83.78;99710.30;1771916;79;21604;-70
2021/05/08 09:00:26;;;;;;;6.53;3.00;;;;;;;22.33;76.02;99704.36;1770735;80;21147;-68
2021/05/08 09:02:54;;;;;;;7.97;2.93;;;;;;;22.62;67.03;99701.02;1769532;79;21350;-68
2021/05/08 09:05:25;;;;;;;7.80;3.37;;;;;;;22.70;62.75;99703.08;1762992;79;21122;-67
2021/05/08 09:07:53;;;;;;;6.63;3.27;;;;;;;22.64;62.79;99695.67;1763578;79;21020;-67
2021/05/08 09:10:28;;;;;;;5.60;3.30;;;;;;;22.49;63.30;99693.11;1761728;79;21508;-69
2021/05/08 09:12:59;;;;;;;7.20;2.87;;;;;;;22.40;65.77;99697.43;1770921;79;21226;-69
2021/05/08 09:15:37;;;;;;;4.72;3.27;;;;;;;22.39;66.02;99695.31;1767889;80;21198;-67
2021/05/08 09:18:07;;;;;;;6.07;3.10;;;;;;;22.50;65.75;99686.72;1760280;79;21214;-69
2021/05/08 09:20:45;;;;;;;6.37;3.40;;;;;;;22.65;65.91;99680.52;1767710;79;21222;-70
2021/05/08 09:23:31;;;;;;;7.20;4.17;;;;;;;22.88;66.18;99679.83;1767107;79;21054;-68
2021/05/08 09:26:09;;;;;;;7.20;4.03;;;;;;;23.20;65.75;99686.48;1798270;78;21667;-67
2021/05/08 09:28:40;;;;;;;7.87;4.00;;;;;;;23.42;61.11;99674.83;1796866;78;21370;-69
2021/05/08 09:31:13;;;;;;;8.73;3.83;;;;;;;23.55;61.91;99672.02;1803086;78;21059;-70
2021/05/08 09:33:51;;;;;;;9.03;4.33;;;;;;;23.73;58.14;99664.66;1797731;78;21210;-66
2021/05/08 09:36:19;;;;;;;7.20;4.20;;;;;;;23.81;56.44;99656.59;1800718;78;21150;-67
2021/05/08 09:38:48;;;;;;;6.43;3.90;;;;;;;23.86;55.52;99654.39;1770269;79;21214;-68
2021/05/08 09:41:19;;;;;;;6.83;3.50;;;;;;;23.93;53.53;99651.63;1789080;79;22369;-68
2021/05/08 09:43:48;;;;;;;6.70;4.17;;;;;;;23.91;53.25;99641.83;1763895;79;21165;-65
2021/05/08 09:46:28;;;;;;;10.00;4.40;;;;;;;23.84;53.59;99633.94;1768546;80;21129;-64
2021/05/08 09:51:59;;;;;;;6.80;3.60;;;;;;;23.98;53.63;99608.99;1827798;78;26488;-66
2021/05/08 09:54:28;;;;;;;7.07;3.60;;;;;;;24.25;52.59;99628.86;1799260;79;21033;-68
2021/05/08 09:56:56;;;;;;;5.13;3.53;;;;;;;24.50;50.74;99621.81;1810492;79;21193;-66
2021/05/08 09:59:37;;;;;;;7.30;4.03;;;;;;;24.82;50.47;99606.13;1806447;79;21456;-66
2021/05/08 10:02:13;;;;;;;5.25;3.27;;;;;;;25.24;48.41;99603.78;1807865;79;20985;-68
2021/05/08 10:04:45;;;;;;;5.87;3.40;;;;;;;25.60;46.95;99603.85;1800115;79;21066;-68
2021/05/08 10:07:23;;;;;;;5.60;3.63;;;;;;;25.96;45.05;99609.27;1806778;79;21061;-67
2021/05/08 10:09:54;;;;;;;5.43;4.13;;;;;;;26.26;43.96;99604.33;1799715;79;22213;-69
2021/05/08 10:12:24;;;;;;;4.97;2.67;;;;;;;26.47;42.56;99603.30;1738124;81;21503;-69
2021/05/08 10:14:54;;;;;;;4.73;3.13;;;;;;;26.64;41.97;99598.63;1753434;80;20981;-68
2021/05/08 10:17:25;;;;;;;5.53;3.07;;;;;;;26.98;41.49;99589.21;1774996;79;20960;-68
2021/05/08 10:20:06;;;;;;;5.10;3.10;;;;;;;27.37;40.42;99585.75;1755237;80;21147;-68
2021/05/08 10:22:39;;;;;;;5.93;3.30;;;;;;;27.58;40.30;99582.73;1766523;80;22613;-65
2021/05/08 10:25:08;;;;;;;5.43;3.03;;;;;;;27.53;38.56;99582.08;1732773;82;21152;-68
2021/05/08 10:27:37;;;;;;;4.47;2.90;;;;;;;27.21;38.72;99582.71;1742337;81;21136;-69
2021/05/08 10:30:09;;;;;;;5.20;3.50;;;;;;;26.80;39.63;99573.08;1736257;81;21795;-70
2021/05/08 10:32:41;;;;;;;6.23;3.10;;;;;;;26.48;40.66;99570.69;1739955;81;21167;-68
2021/05/08 10:35:12;;;;;;;5.13;3.63;;;;;;;26.12;41.66;99572.86;1739584;81;21276;-67
2021/05/08 10:37:42;;;;;;;7.28;3.20;;;;;;;25.87;42.67;99568.33;1740283;80;22501;-68
2021/05/08 10:40:15;;;;;;;3.73;2.70;;;;;;;25.77;42.57;99569.09;1728942;82;21007;-68
2021/05/08 10:42:48;;;;;;;6.03;3.40;;;;;;;25.88;42.20;99575.27;1737698;81;21694;-67
2021/05/08 10:45:24;;;;;;;4.87;3.17;;;;;;;26.13;40.71;99567.20;1764039;80;21086;-64
2021/05/08 10:51:17;;;;;;;5.13;3.40;;;;;;;26.62;39.93;99568.73;1781137;78;65842;-68
2021/05/08 10:53:45;;;;;;;6.03;3.60;;;;;;;26.54;39.90;99559.56;1767623;79;21163;-74
2021/05/08 10:56:33;;;;;;;11.73;4.00;;;;;;;26.39;40.04;99558.03;1789815;79;21158;-71
2021/05/08 10:59:07;;;;;;;5.77;3.43;;;;;;;26.40;39.03;99544.94;1756706;80;21605;-63
2021/05/08 11:01:44;;;;;;;6.20;3.40;;;;;;;26.61;39.24;99542.55;1809172;79;21227;-63
2021/05/08 11:04:13;;;;;;;8.13;4.60;;;;;;;26.91;39.84;99531.59;1792400;78;21228;-69
2021/05/08 11:06:42;;;;;;;6.53;3.67;;;;;;;27.35;37.85;99526.38;1787365;78;20946;-73
2021/05/08 11:09:19;;;;;;;8.58;4.97;;;;;;;27.60;37.38;99522.17;1756497;80;20989;-70
2021/05/08 11:11:55;;;;;;;6.93;4.33;;;;;;;27.74;37.28;99520.69;1827684;78;23401;-63
2021/05/08 11:14:52;;;;;;;5.22;4.35;;;;;;;27.70;36.87;99512.50;1803053;78;21046;-64
2021/05/08 11:17:21;;;;;;;6.87;4.37;;;;;;;27.37;36.98;99507.58;1795275;78;21446;-61
2021/05/08 11:19:52;;;;;;;6.70;3.70;;;;;;;26.76;37.95;99505.83;1740974;80;21418;-65
2021/05/08 11:22:30;;;;;;;7.93;3.90;;;;;;;26.25;38.25;99514.56;1726409;82;21065;-68
2021/05/08 11:24:58;;;;;;;5.57;3.60;;;;;;;25.76;39.25;99508.24;1770528;80;21058;-61
2021/05/08 11:27:27;;;;;;;5.00;3.83;;;;;;;25.50;41.05;99501.89;1731895;82;21602;-62
2021/05/08 11:30:04;;;;;;;7.37;3.43;;;;;;;25.66;41.98;99497.78;1723079;81;22202;-62
2021/05/08 11:32:35;;;;;;;5.67;3.67;;;;;;;25.98;40.84;99494.67;1724495;81;21074;-64
2021/05/08 11:35:04;;;;;;;5.78;3.55;;;;;;;26.31;41.04;99485.30;1678732;81;21081;-63
2021/05/08 11:37:32;;;;;;;6.87;4.27;;;;;;;26.63;40.19;99475.40;1734594;81;21221;-66
2021/05/08 11:40:00;;;;;;;5.77;3.27;;;;;;;26.85;38.98;99461.95;1718865;81;21178;-63
2021/05/08 11:42:31;;;;;;;4.87;2.93;;;;;;;26.95;38.76;99466.23;1725203;81;21664;-68
2021/05/08 11:45:00;;;;;;;5.03;2.20;;;;;;;27.06;37.23;99462.73;1748038;80;21419;-62
2021/05/08 11:47:34;;;;;;;4.90;2.60;;;;;;;27.23;36.37;99462.77;1720549;81;21252;-63
2021/05/08 11:50:10;;;;;;;6.37;2.50;;;;;;;27.29;36.85;99461.53;1745093;81;21063;-67
2021/05/08 11:52:44;;;;;;;5.93;2.23;;;;;;;27.39;36.01;99463.91;1758900;80;21211;-62
2021/05/08 11:55:17;;;;;;;5.27;2.53;;;;;;;27.40;34.26;99469.48;1763459;80;22281;-63
2021/05/08 11:57:59;;;;;;;8.10;2.40;;;;;;;27.29;35.23;99456.73;1770625;80;20931;-65
2021/05/08 12:00:32;;;;;;;7.13;2.90;;;;;;;27.18;35.00;99457.58;1759361;80;21205;-61
2021/05/08 12:03:13;;;;;;;6.13;2.10;;;;;;;26.94;36.04;99459.33;1752976;80;21134;-62
2021/05/08 12:05:47;;;;;;;3.22;2.10;;;;;;;27.00;36.22;99460.73;1772893;80;21559;-66
2021/05/08 12:08:18;;;;;;;7.30;2.53;;;;;;;27.22;35.64;99448.38;1770349;80;21346;-64
2021/05/08 12:10:49;;;;;;;7.93;2.20;;;;;;;27.22;35.75;99451.05;1766548;80;20951;-65
2021/05/08 12:13:19;;;;;;;6.17;2.50;;;;;;;26.98;36.17;99442.11;1764945;80;21130;-63
2021/05/08 12:15:51;;;;;;;5.23;2.50;;;;;;;26.72;36.90;99440.14;1755382;80;21328;-62
2021/05/08 12:18:40;;;;;;;4.15;2.10;;;;;;;26.52;37.28;99434.00;1780483;79;21161;-62
2021/05/08 12:21:12;;;;;;;5.72;2.02;;;;;;;26.20;37.89;99439.34;1749522;80;21385;-68
2021/05/08 12:23:41;;;;;;;5.43;2.10;;;;;;;25.84;38.23;99436.01;1747052;79;21569;-71
2021/05/08 12:26:13;;;;;;;5.37;2.33;;;;;;;25.54;38.66;99436.94;1753363;80;21118;-68
2021/05/08 12:28:51;;;;;;;3.83;2.03;;;;;;;25.46;38.52;99442.45;1750965;80;21176;-70
2021/05/08 12:31:33;;;;;;;5.70;2.03;;;;;;;25.49;38.01;99445.04;1755809;79;21318;-68
2021/05/08 12:34:15;;;;;;;6.00;2.40;;;;;;;25.36;37.99;99432.55;1747089;80;22748;-70
2021/05/08 12:37:00;;;;;;;4.20;1.80;;;;;;;25.18;38.71;99433.72;1748900;80;21180;-67
2021/05/08 12:39:29;;;;;;;8.03;2.40;;;;;;;25.11;38.62;99424.00;1752441;79;21151;-64
2021/05/08 12:42:04;;;;;;;5.37;2.27;;;;;;;25.02;39.11;99436.44;1755647;80;21446;-68
2021/05/08 12:44:38;;;;;;;5.70;2.63;;;;;;;24.87;39.71;99431.42;1743373;79;21258;-70
2021/05/08 12:47:17;;;;;;;6.30;2.20;;;;;;;24.72;40.13;99425.30;1748743;80;21184;-68
2021/05/08 12:53:03;;;;;;;4.93;2.23;;;;;;;24.52;40.78;99423.05;1825176;77;26315;-67
2021/05/08 12:55:37;;;;;;;4.23;2.20;;;;;;;24.36;40.55;99423.03;1765756;79;21359;-60
2021/05/08 12:58:14;;;;;;;4.70;2.30;;;;;;;24.24;41.89;99419.52;1786750;78;21419;-67
2021/05/08 13:00:51;;;;;;;6.10;2.70;;;;;;;24.15;42.52;99419.41;1801270;79;22250;-67
2021/05/08 13:06:08;;;;;;;5.03;2.53;;;;;;;24.00;43.10;99414.36;1744273;82;20995;-65
2021/05/08 13:08:47;;;;;;;6.70;2.20;;;;;;;23.82;43.82;99400.00;1771893;80;21030;-61
2021/05/08 13:11:42;;;;;;;6.50;2.43;;;;;;;23.71;44.80;99401.25;1732403;81;21159;-66
2021/05/08 13:14:24;;;;;;;6.93;2.53;;;;;;;23.59;45.67;99397.68;1743881;81;21136;-65
2021/05/08 13:19:34;;;;;;;4.57;2.00;;;;;;;23.42;47.33;99400.88;1811299;78;26699;-61
2021/05/08 13:22:02;;;;;;;8.70;2.83;;;;;;;23.28;46.99;99406.11;1792962;79;21079;-61
2021/05/08 13:24:34;;;;;;;7.23;2.30;;;;;;;23.15;47.80;99402.07;1782461;79;22392;-64
2021/05/08 13:27:03;;;;;;;3.75;2.35;;;;;;;23.03;47.87;99400.63;1789064;79;20923;-67
2021/05/08 13:29:31;;;;;;;6.53;2.53;;;;;;;22.92;48.67;99401.83;1779020;79;21033;-62
2021/05/08 13:32:00;;;;;;;6.53;2.50;;;;;;;22.79;48.87;99391.31;1790218;79;21078;-61
2021/05/08 13:34:30;;;;;;;5.00;2.30;;;;;;;22.70;49.47;99397.02;1789542;79;20965;-62
2021/05/08 13:36:59;;;;;;;4.33;2.30;;;;;;;22.68;49.25;99395.70;1793117;79;22268;-65
2021/05/08 13:39:27;;;;;;;4.77;2.40;;;;;;;22.63;46.57;99389.92;1795866;79;21593;-62
2021/05/08 13:41:56;;;;;;;5.20;2.00;;;;;;;22.59;45.99;99388.91;1799244;79;21276;-66
2021/05/08 13:44:26;;;;;;;6.00;2.30;;;;;;;22.58;47.04;99408.59;1792454;79;21005;-66
2021/05/08 13:46:55;;;;;;;5.67;1.97;;;;;;;22.54;55.70;99394.27;1787579;79;21214;-65
2021/05/08 13:49:23;;;;;;;5.43;1.70;;;;;;;22.29;63.26;99403.31;1797817;79;22177;-64
2021/05/08 13:51:52;;;;;;;3.60;2.33;;;;;;;21.99;70.78;99410.45;1791096;79;21202;-66
2021/05/08 13:54:20;;;;;;;5.27;2.57;;;;;;;21.73;78.12;99422.34;1797757;78;20978;-66
2021/05/08 13:57:03;;;;;;;4.80;2.40;;;;;;;21.47;85.80;99436.30;1688033;82;21086;-61
2021/05/08 13:59:32;;;;;;;7.67;2.70;;;;;;;21.16;94.70;99435.66;1685856;82;22369;-65
2021/05/08 14:02:02;;;;;;;4.33;2.60;;;;;;;20.88;100.00;99431.28;1689033;82;21360;-65
2021/05/08 14:04:31;;;;;;;4.93;3.10;;;;;;;20.62;100.00;99430.03;1680933;82;21240;-66
2021/05/08 14:07:00;;;;;;;6.50;2.90;;;;;;;20.41;100.00;99427.13;1689183;82;21135;-66
2021/05/08 14:09:29;;;;;;;5.83;3.10;;;;;;;20.23;100.00;99420.56;1689110;82;21128;-63
2021/05/08 14:11:58;;;;;;;6.53;2.67;;;;;;;20.08;100.00;99420.58;1686463;82;21214;-64
2021/05/08 14:14:27;;;;;;;4.80;3.03;;;;;;;19.89;100.00;99416.35;1683663;82;22422;-67
2021/05/08 14:16:56;;;;;;;6.40;3.07;;;;;;;19.77;100.00;99422.41;1684833;82;21581;-66
2021/05/08 14:19:26;;;;;;;6.17;3.00;;;;;;;19.61;100.00;99427.65;1685020;82;21212;-64
2021/05/08 14:21:55;;;;;;;6.03;3.20;;;;;;;19.47;100.00;99425.24;1686041;82;21240;-62
2021/05/08 14:24:23;;;;;;;6.10;3.47;;;;;;;19.33;100.00;99425.50;1685621;82;21215;-64
2021/05/08 14:26:51;;;;;;;5.07;3.07;;;;;;;19.17;100.00;99422.03;1683261;82;22864;-66
2021/05/08 14:29:20;;;;;;;7.17;3.37;;;;;;;19.04;100.00;99428.57;1686780;82;21169;-62
2021/05/08 14:31:51;;;;;;;5.13;3.50;;;;;;;19.00;100.00;99419.58;1687214;82;21549;-66
2021/05/08 14:34:21;;;;;;;5.57;2.97;;;;;;;18.98;100.00;99416.41;1687821;82;21824;-67
2021/05/08 14:36:50;;;;;;;4.90;3.00;;;;;;;18.93;100.00;99411.09;1685056;82;21216;-65
2021/05/08 14:39:20;;;;;;;6.03;3.53;;;;;;;18.87;100.00;99410.30;1678337;82;22645;-66
2021/05/08 14:41:49;;;;;;;5.87;3.37;;;;;;;18.79;100.00;99408.65;1685644;82;21207;-67
2021/05/08 14:44:17;;;;;;;5.40;4.03;;;;;;;18.73;100.00;99406.53;1686996;82;22161;-64
2021/05/08 14:46:45;;;;;;;9.83;4.30;;;;;;;18.65;100.00;99401.19;1687703;82;21176;-65
2021/05/08 14:49:14;;;;;;;6.60;3.93;;;;;;;18.61;100.00;99415.16;1684738;82;21639;-66
2021/05/08 14:51:42;;;;;;;6.37;3.90;;;;;;;18.52;100.00;99420.10;1691122;84;21245;-66
2021/05/08 14:54:10;;;;;;;6.03;3.37;;;;;;;18.43;100.00;99422.44;1686262;82;21615;-67
2021/05/08 14:56:39;;;;;;;8.33;3.60;;;;;;;18.35;100.00;99425.55;1715257;81;21239;-66